Terminal Aerodrome Forecast
Issued by NWS Hastings, NE

Home | Current Version | Previous Version | Text Only | Print | Product List | Glossary On
Versions: 1 2 3 4 5 6 7 8 9 10 11 12 13
000
FTUS43 KGID 251739
TAFGRI
TAF
KGRI 251739Z 2518/2618 17016G24KT P6SM SCT250
     FM252200 17011KT P6SM SCT120
     FM260100 14008KT P6SM BKN090
     FM260500 01005KT P6SM BKN100
     FM261100 35007KT P6SM SCT110
     FM261500 36011KT P6SM FEW200=

USA.gov is the U.S. government's official web portal to all federal, state and local government web resources and services.